Time;durP1;ratioP1;P1;durP2;ratioP2;P2;SDS_P1;SDS_P2;PMS_P1;PMS_P2;Temp;Humidity;BMP_temperature;BMP_pressure;BME280_temperature;BME280_humidity;BME280_pressure;Samples;Min_cycle;Max_cycle;Signal;HPM_P1;HPM_P2
2022/05/21 00:01:09;;;;;;;8.35;2.80;;;10.90;99.90;;;;;;4219313;28;20143;-84
2022/05/21 00:03:10;;;;;;;5.35;2.50;;;10.70;99.90;;;;;;4237873;28;20130;-84
2022/05/21 00:05:13;;;;;;;17.27;3.15;;;10.60;99.90;;;;;;4238634;28;20411;-83
2022/05/21 00:07:14;;;;;;;9.35;2.83;;;10.70;99.90;;;;;;4238836;28;20051;-83
2022/05/21 00:09:16;;;;;;;10.18;3.20;;;10.60;99.90;;;;;;4239280;28;20040;-84
2022/05/21 00:11:17;;;;;;;10.77;3.20;;;10.60;99.90;;;;;;4224948;28;20554;-84
2022/05/21 00:13:19;;;;;;;5.55;2.55;;;10.60;99.90;;;;;;4222226;28;20064;-84
2022/05/21 00:15:23;;;;;;;12.73;3.05;;;10.60;99.90;;;;;;4237389;28;20048;-84
2022/05/21 00:17:24;;;;;;;10.07;3.30;;;10.60;99.90;;;;;;4236677;28;20515;-85
2022/05/21 00:19:24;;;;;;;5.93;2.80;;;10.60;99.90;;;;;;4239404;28;20047;-84
2022/05/21 00:21:26;;;;;;;5.88;2.88;;;10.60;99.90;;;;;;4241014;28;20048;-83
2022/05/21 00:23:31;;;;;;;8.52;3.10;;;10.60;99.90;;;;;;4235371;28;20074;-84
2022/05/21 00:25:31;;;;;;;5.57;2.92;;;10.70;99.90;;;;;;4235312;28;20610;-83
2022/05/21 00:27:33;;;;;;;8.23;2.97;;;10.10;99.90;;;;;;4238552;28;20171;-84
2022/05/21 00:29:34;;;;;;;11.38;3.00;;;10.60;99.90;;;;;;4237319;28;20047;-84
2022/05/21 00:31:36;;;;;;;10.77;3.88;;;10.60;99.90;;;;;;4236860;28;20514;-84
2022/05/21 00:33:37;;;;;;;6.75;3.30;;;10.60;99.90;;;;;;4237290;28;20507;-83
2022/05/21 00:35:38;;;;;;;5.20;3.50;;;10.60;99.90;;;;;;4236298;28;20054;-84
2022/05/21 00:37:43;;;;;;;15.85;4.47;;;10.90;99.90;;;;;;4236885;28;20052;-84
2022/05/21 00:39:44;;;;;;;9.30;3.45;;;10.70;99.90;;;;;;4238010;28;20051;-84
2022/05/21 00:41:47;;;;;;;10.70;4.30;;;10.60;99.90;;;;;;4236493;28;20059;-84
2022/05/21 00:43:51;;;;;;;15.15;4.10;;;10.70;99.90;;;;;;4238055;28;20048;-83
2022/05/21 00:45:52;;;;;;;9.38;4.47;;;10.70;99.90;;;;;;4239757;28;20040;-83
2022/05/21 00:47:54;;;;;;;8.63;4.57;;;10.80;99.90;;;;;;4236761;28;20076;-84
2022/05/21 00:49:55;;;;;;;10.98;5.47;;;10.70;99.90;;;;;;4237639;28;20437;-84
2022/05/21 00:52:04;;;;;;;11.05;5.53;;;10.80;99.90;;;;;;4236047;28;20088;-85
2022/05/21 00:54:07;;;;;;;11.27;5.28;;;11.00;99.90;;;;;;4236689;28;20089;-84
2022/05/21 00:56:10;;;;;;;13.55;6.55;;;11.10;99.90;;;;;;4235381;28;20083;-84
2022/05/21 01:00:39;;;;;;;14.68;6.05;;;10.90;99.90;;;;;;4235449;28;20056;-83
2022/05/21 01:02:53;;;;;;;12.70;5.97;;;10.90;99.90;;;;;;4234009;28;20039;-84
2022/05/21 01:04:56;;;;;;;12.07;6.28;;;10.90;99.90;;;;;;4234679;28;20046;-84
2022/05/21 01:07:00;;;;;;;23.08;6.82;;;10.90;99.90;;;;;;4235081;28;20515;-84
2022/05/21 01:09:01;;;;;;;16.83;6.20;;;11.00;99.90;;;;;;4252116;27;20054;-84
2022/05/21 01:11:06;;;;;;;17.90;7.30;;;11.10;99.90;;;;;;4251623;27;20398;-84
2022/05/21 01:13:13;;;;;;;15.90;6.45;;;11.00;99.90;;;;;;4251617;27;20050;-84
2022/05/21 01:15:20;;;;;;;14.07;6.78;;;11.10;99.90;;;;;;4252172;27;20047;-83
2022/05/21 01:17:21;;;;;;;16.95;6.40;;;11.20;99.90;;;;;;4252864;27;20047;-83
2022/05/21 01:19:23;;;;;;;21.52;6.93;;;11.10;99.90;;;;;;4252440;27;20035;-84
2022/05/21 01:21:24;;;;;;;21.15;7.18;;;11.10;99.90;;;;;;4251960;27;20058;-84
2022/05/21 01:23:26;;;;;;;12.98;7.13;;;11.10;99.90;;;;;;4251865;27;20047;-84
2022/05/21 01:25:29;;;;;;;20.92;8.55;;;11.10;99.90;;;;;;4216556;28;20047;-84
2022/05/21 01:27:29;;;;;;;16.58;8.02;;;11.10;99.90;;;;;;4251316;27;20043;-84
2022/05/21 01:29:31;;;;;;;19.20;7.57;;;11.10;99.90;;;;;;4251561;27;20459;-84
2022/05/21 01:31:34;;;;;;;21.67;7.85;;;11.10;99.90;;;;;;4251170;27;20470;-83
2022/05/21 01:33:38;;;;;;;21.45;8.73;;;11.10;99.90;;;;;;4251147;27;20044;-84
2022/05/21 01:35:43;;;;;;;19.83;7.65;;;11.20;99.90;;;;;;4251338;27;20039;-84
2022/05/21 01:37:45;;;;;;;15.95;7.60;;;11.10;99.90;;;;;;4249924;27;20061;-83
2022/05/21 01:39:47;;;;;;;13.32;7.22;;;11.10;99.90;;;;;;4231680;28;20502;-84
2022/05/21 01:41:48;;;;;;;22.80;8.02;;;11.20;99.90;;;;;;4250656;27;20046;-83
2022/05/21 01:46:08;;;;;;;;;;;11.20;99.90;;;;;;4251429;27;20035;-84
2022/05/21 01:48:10;;;;;;;17.30;7.55;;;11.20;99.90;;;;;;4251233;27;19919;-84
2022/05/21 01:50:11;;;;;;;17.67;8.45;;;11.30;99.90;;;;;;4252114;27;20039;-84
2022/05/21 01:52:13;;;;;;;19.90;8.15;;;11.30;99.90;;;;;;4252547;27;20391;-84
2022/05/21 01:54:15;;;;;;;19.38;8.80;;;11.20;99.90;;;;;;4251560;27;20050;-83
2022/05/21 01:56:16;;;;;;;16.60;8.73;;;11.30;99.90;;;;;;4250354;27;20052;-84
2022/05/21 01:58:19;;;;;;;20.95;9.02;;;11.40;99.90;;;;;;4251756;27;20087;-84
2022/05/21 02:00:20;;;;;;;19.45;9.52;;;11.30;99.90;;;;;;4251123;27;20127;-83
2022/05/21 02:02:21;;;;;;;20.33;9.32;;;11.40;99.90;;;;;;4233722;28;20135;-84
2022/05/21 02:04:23;;;;;;;24.55;10.13;;;11.50;99.90;;;;;;4253088;27;20077;-83
2022/05/21 02:06:24;;;;;;;22.27;9.90;;;11.50;99.90;;;;;;4232751;28;20123;-83
2022/05/21 02:08:24;;;;;;;19.55;9.27;;;11.90;99.90;;;;;;4237427;27;20047;-84
2022/05/21 02:10:25;;;;;;;22.33;10.35;;;11.60;99.90;;;;;;4232793;28;20043;-84
2022/05/21 02:12:27;;;;;;;22.02;9.75;;;11.60;99.90;;;;;;4243983;27;20092;-84
2022/05/21 02:14:27;;;;;;;24.85;10.77;;;11.60;99.90;;;;;;4250161;27;20126;-84
2022/05/21 02:16:28;;;;;;;20.98;10.30;;;11.60;99.90;;;;;;4231827;28;20479;-84
2022/05/21 02:18:31;;;;;;;28.25;11.35;;;11.70;99.90;;;;;;4251108;27;20042;-83
2022/05/21 02:20:32;;;;;;;23.65;10.80;;;11.70;99.90;;;;;;4251017;27;20079;-84
2022/05/21 02:22:36;;;;;;;26.05;11.82;;;11.80;99.90;;;;;;4234400;28;20047;-83
2022/05/21 02:24:38;;;;;;;20.02;10.20;;;11.80;99.90;;;;;;4249125;27;20070;-85
2022/05/21 02:26:39;;;;;;;19.95;10.75;;;11.80;99.90;;;;;;4230709;28;20055;-85
2022/05/21 02:28:40;;;;;;;21.67;10.65;;;11.80;99.90;;;;;;4248677;27;20042;-85
2022/05/21 02:30:43;;;;;;;26.75;11.27;;;11.80;99.90;;;;;;4249109;27;20184;-85
2022/05/21 02:32:45;;;;;;;23.42;11.45;;;11.90;99.90;;;;;;4248893;27;20036;-85
2022/05/21 02:34:45;;;;;;;21.35;10.93;;;11.90;99.90;;;;;;4249224;27;20034;-84
2022/05/21 02:41:26;;;;;;;21.85;11.70;;;12.00;99.90;;;;;;4248493;27;20051;-85
2022/05/21 02:43:29;;;;;;;26.08;11.88;;;12.00;99.90;;;;;;4248446;27;20390;-84
2022/05/21 02:45:30;;;;;;;23.85;11.10;;;12.00;99.90;;;;;;4248804;27;20039;-84
2022/05/21 02:47:32;;;;;;;23.02;11.75;;;11.90;99.90;;;;;;4248645;27;20399;-85
2022/05/21 02:49:32;;;;;;;27.02;11.77;;;12.00;99.90;;;;;;4248924;27;20471;-84
2022/05/21 02:51:33;;;;;;;26.30;10.27;;;12.00;99.90;;;;;;4248925;27;20042;-85
2022/05/21 02:53:35;;;;;;;28.75;12.15;;;12.10;99.90;;;;;;4248882;27;20114;-84
2022/05/21 02:55:37;;;;;;;17.00;10.20;;;12.00;99.90;;;;;;4249586;27;20043;-84
2022/05/21 02:57:39;;;;;;;25.33;10.48;;;12.10;99.90;;;;;;4249065;27;20047;-84
2022/05/21 02:59:39;;;;;;;21.20;10.07;;;12.10;99.90;;;;;;4249000;27;20035;-84
2022/05/21 03:01:40;;;;;;;28.75;9.82;;;12.10;99.90;;;;;;4249102;27;20089;-84
2022/05/21 03:03:41;;;;;;;24.42;10.38;;;12.20;99.90;;;;;;4248303;27;20430;-84
2022/05/21 03:05:43;;;;;;;27.15;10.00;;;12.20;99.90;;;;;;4249185;27;20043;-85
2022/05/21 03:07:46;;;;;;;26.65;10.18;;;12.40;99.90;;;;;;4242684;27;20032;-85
2022/05/21 03:12:08;;;;;;;30.05;9.02;;;12.30;99.90;;;;;;4233742;28;20075;-85
2022/05/21 03:14:09;;;;;;;16.40;7.75;;;12.30;99.90;;;;;;4231256;28;20040;-84
2022/05/21 03:16:10;;;;;;;20.55;8.10;;;12.40;99.90;;;;;;4232161;28;20469;-84
2022/05/21 03:18:13;;;;;;;21.17;7.93;;;12.40;99.90;;;;;;4232407;28;20096;-85
2022/05/21 03:20:16;;;;;;;19.35;5.97;;;12.30;99.90;;;;;;4230884;28;20126;-85
2022/05/21 03:22:17;;;;;;;20.02;5.82;;;12.40;99.90;;;;;;4234128;28;20060;-85
2022/05/21 03:24:17;;;;;;;23.20;6.07;;;12.40;99.90;;;;;;4240211;28;20087;-85
2022/05/21 03:26:19;;;;;;;17.33;5.07;;;12.50;99.90;;;;;;4217187;28;20067;-84
2022/05/21 03:28:20;;;;;;;20.40;5.68;;;12.50;99.90;;;;;;4232154;28;20513;-84
2022/05/21 03:30:25;;;;;;;20.42;4.75;;;12.60;99.90;;;;;;4237658;28;20040;-85
2022/05/21 03:32:25;;;;;;;24.15;5.18;;;12.50;99.90;;;;;;4239548;28;20067;-84
2022/05/21 03:34:27;;;;;;;18.00;5.25;;;12.60;99.90;;;;;;4236500;28;20445;-84
2022/05/21 03:36:27;;;;;;;19.27;4.95;;;12.60;99.90;;;;;;4231524;28;20052;-85
2022/05/21 03:38:28;;;;;;;17.85;4.72;;;12.60;99.90;;;;;;4213392;28;20048;-85
2022/05/21 03:40:31;;;;;;;18.40;5.55;;;12.60;99.90;;;;;;4213205;28;20040;-84
2022/05/21 03:42:31;;;;;;;19.02;4.28;;;12.60;99.90;;;;;;4231752;28;20552;-84
2022/05/21 03:44:32;;;;;;;18.35;4.00;;;12.60;99.90;;;;;;4213531;28;20040;-85
2022/05/21 03:46:34;;;;;;;27.27;4.63;;;12.70;99.90;;;;;;4231341;28;20073;-84
2022/05/21 03:48:34;;;;;;;14.60;3.83;;;12.70;99.90;;;;;;4231784;28;20569;-84
2022/05/21 03:50:35;;;;;;;12.57;4.10;;;12.70;99.90;;;;;;4231364;28;20035;-84
2022/05/21 03:52:36;;;;;;;11.57;3.08;;;12.70;99.90;;;;;;4231544;28;20443;-85
2022/05/21 03:54:36;;;;;;;19.17;4.47;;;12.80;99.90;;;;;;4231378;28;20078;-84
2022/05/21 03:56:37;;;;;;;22.10;3.47;;;12.80;99.90;;;;;;4231837;28;20103;-85
2022/05/21 03:58:39;;;;;;;18.70;5.07;;;12.80;99.90;;;;;;4231925;28;20039;-84
2022/05/21 04:00:40;;;;;;;14.38;3.83;;;12.80;99.90;;;;;;4232380;28;20101;-84
2022/05/21 04:02:41;;;;;;;11.50;3.13;;;12.80;99.90;;;;;;4235719;28;20480;-84
2022/05/21 04:04:42;;;;;;;19.65;4.35;;;12.70;99.90;;;;;;4234930;28;20043;-84
2022/05/21 04:06:44;;;;;;;18.55;4.00;;;12.90;99.90;;;;;;4235448;27;20043;-84
2022/05/21 04:08:46;;;;;;;22.15;4.28;;;12.90;99.90;;;;;;4249152;27;20380;-84
2022/05/21 04:10:48;;;;;;;16.50;3.13;;;12.80;99.90;;;;;;4252686;27;20054;-85
2022/05/21 04:12:49;;;;;;;16.05;3.40;;;12.90;99.90;;;;;;4250263;27;20043;-85
2022/05/21 04:14:50;;;;;;;19.20;4.45;;;12.90;99.90;;;;;;4224054;28;20051;-84
2022/05/21 04:16:50;;;;;;;10.40;3.28;;;12.90;99.90;;;;;;4217190;28;20055;-84
2022/05/21 04:18:51;;;;;;;9.82;2.97;;;12.90;99.90;;;;;;4252189;27;20042;-84
2022/05/21 04:20:52;;;;;;;14.18;3.45;;;12.40;99.90;;;;;;4251885;27;20051;-84
2022/05/21 04:22:52;;;;;;;17.38;3.85;;;13.00;99.90;;;;;;4251303;27;20111;-84
2022/05/21 04:24:53;;;;;;;13.80;3.88;;;13.00;99.90;;;;;;4251894;27;20043;-84
2022/05/21 04:26:54;;;;;;;14.50;3.78;;;12.90;99.90;;;;;;4252090;27;20123;-84
2022/05/21 04:28:55;;;;;;;13.98;2.50;;;13.00;99.90;;;;;;4251430;27;20457;-84
2022/05/21 04:30:56;;;;;;;15.57;2.17;;;13.00;99.90;;;;;;4243129;27;20585;-84
2022/05/21 04:32:58;;;;;;;13.07;3.35;;;13.00;99.90;;;;;;4252300;27;20070;-84
2022/05/21 04:34:59;;;;;;;9.77;2.58;;;12.90;99.90;;;;;;4251795;27;20114;-84
2022/05/21 04:37:01;;;;;;;13.57;2.75;;;12.90;99.90;;;;;;4251971;27;20555;-84
2022/05/21 04:39:01;;;;;;;13.88;2.80;;;13.00;99.90;;;;;;4251449;27;20039;-84
2022/05/21 04:41:02;;;;;;;13.85;2.42;;;12.90;99.90;;;;;;4251172;27;20383;-85
2022/05/21 04:43:03;;;;;;;10.60;2.97;;;13.00;99.90;;;;;;4233300;28;20392;-84
2022/05/21 04:45:06;;;;;;;10.18;2.47;;;13.00;99.90;;;;;;4251647;27;20181;-84
2022/05/21 04:47:07;;;;;;;12.02;2.47;;;13.00;99.90;;;;;;4233447;28;20039;-84
2022/05/21 04:49:08;;;;;;;13.05;2.53;;;12.10;99.90;;;;;;4234918;28;20127;-85
2022/05/21 04:51:09;;;;;;;10.88;2.33;;;13.00;99.90;;;;;;4233565;28;20035;-84
2022/05/21 04:53:10;;;;;;;10.60;2.55;;;13.00;99.90;;;;;;4233878;28;20055;-83
2022/05/21 04:55:11;;;;;;;9.30;2.40;;;13.00;99.90;;;;;;4251616;27;20048;-84
2022/05/21 04:57:13;;;;;;;15.13;1.90;;;13.00;99.90;;;;;;4252314;27;20126;-84
2022/05/21 04:59:13;;;;;;;10.18;2.42;;;13.00;99.90;;;;;;4253258;27;20043;-84
2022/05/21 05:01:15;;;;;;;12.38;2.92;;;13.00;99.90;;;;;;4236725;28;20480;-84
2022/05/21 05:03:17;;;;;;;13.35;2.45;;;13.00;99.90;;;;;;4234008;28;20071;-84
2022/05/21 05:05:18;;;;;;;10.60;2.75;;;13.00;99.90;;;;;;4252694;27;20039;-84
2022/05/21 05:07:19;;;;;;;13.27;2.00;;;13.00;99.90;;;;;;4252238;27;20046;-83
2022/05/21 05:09:22;;;;;;;9.07;1.90;;;13.10;99.90;;;;;;4256633;27;20039;-82
2022/05/21 05:11:23;;;;;;;8.90;1.75;;;13.10;99.90;;;;;;4254202;27;20126;-83
2022/05/21 05:13:25;;;;;;;12.07;2.30;;;13.10;99.90;;;;;;4248588;27;20043;-83
2022/05/21 05:15:26;;;;;;;11.60;1.80;;;13.10;99.90;;;;;;4255489;27;20126;-83
2022/05/21 05:17:30;;;;;;;11.40;2.40;;;13.00;99.90;;;;;;4259849;27;20027;-83
2022/05/21 05:19:33;;;;;;;8.68;2.10;;;13.10;99.90;;;;;;4259400;27;20078;-83
2022/05/21 05:21:35;;;;;;;14.15;2.40;;;13.10;99.90;;;;;;4259941;27;20604;-83
2022/05/21 05:23:36;;;;;;;13.00;2.42;;;13.10;99.90;;;;;;4262338;27;20054;-84
2022/05/21 05:25:37;;;;;;;11.82;2.42;;;13.10;99.90;;;;;;4263080;27;20039;-84
2022/05/21 05:27:39;;;;;;;13.00;3.35;;;12.60;99.90;;;;;;4262378;27;20045;-84
2022/05/21 05:29:40;;;;;;;10.30;2.15;;;13.20;99.90;;;;;;4259885;27;20043;-83
2022/05/21 05:31:41;;;;;;;10.77;2.15;;;13.20;99.90;;;;;;4244916;28;20110;-84
2022/05/21 05:33:41;;;;;;;14.82;2.33;;;13.20;99.90;;;;;;4265205;27;20063;-84
2022/05/21 05:35:43;;;;;;;11.43;2.00;;;13.20;99.90;;;;;;4263625;27;20113;-83
2022/05/21 05:37:44;;;;;;;7.68;1.77;;;13.30;99.90;;;;;;4263468;27;20043;-83
2022/05/21 05:39:45;;;;;;;11.10;2.45;;;13.40;99.90;;;;;;4262259;27;20072;-84
2022/05/21 05:41:46;;;;;;;8.38;2.45;;;13.40;99.90;;;;;;4234881;28;20043;-83
2022/05/21 05:43:46;;;;;;;17.92;3.42;;;13.40;99.90;;;;;;4251143;27;20515;-84
2022/05/21 05:45:49;;;;;;;10.05;2.00;;;13.40;99.90;;;;;;4254599;27;20061;-83
2022/05/21 05:47:50;;;;;;;9.48;1.70;;;13.40;99.90;;;;;;4252720;27;20462;-84
2022/05/21 05:49:50;;;;;;;11.13;1.77;;;13.40;99.90;;;;;;4232484;28;20036;-83
2022/05/21 05:51:51;;;;;;;9.88;1.80;;;13.40;99.90;;;;;;4234214;28;20094;-83
2022/05/21 05:53:52;;;;;;;8.75;1.92;;;13.40;99.90;;;;;;4234364;28;20063;-84
2022/05/21 05:55:53;;;;;;;9.75;2.00;;;13.50;99.90;;;;;;4250854;27;20081;-83
2022/05/21 05:57:54;;;;;;;10.10;2.40;;;13.50;99.90;;;;;;4250073;27;20035;-82
2022/05/21 05:59:56;;;;;;;11.07;2.13;;;13.50;99.90;;;;;;4249211;27;20055;-83
2022/05/21 06:04:16;;;;;;;;;;;13.70;99.90;;;;;;4231387;28;20044;-83
2022/05/21 06:06:17;;;;;;;8.98;2.00;;;13.60;99.90;;;;;;4252317;27;19923;-83
2022/05/21 06:08:19;;;;;;;8.85;1.90;;;13.60;99.90;;;;;;4250964;27;20046;-83
2022/05/21 06:10:23;;;;;;;10.20;1.95;;;13.60;99.90;;;;;;4250759;27;20132;-82
2022/05/21 06:12:24;;;;;;;10.27;2.15;;;13.70;99.90;;;;;;4248623;27;20050;-84
2022/05/21 06:14:25;;;;;;;16.42;2.25;;;13.80;99.90;;;;;;4251323;27;20448;-84
2022/05/21 06:16:26;;;;;;;9.45;1.60;;;13.90;99.90;;;;;;4251227;27;20122;-83
2022/05/21 06:18:27;;;;;;;10.57;1.67;;;14.00;99.90;;;;;;4248710;27;20479;-83
2022/05/21 06:20:28;;;;;;;10.88;2.15;;;14.10;99.90;;;;;;4248606;27;20058;-84
2022/05/21 06:22:28;;;;;;;11.05;2.28;;;14.30;99.90;;;;;;4229672;28;20122;-83
2022/05/21 06:24:33;;;;;;;6.70;1.40;;;14.20;99.90;;;;;;4227812;28;20047;-84
2022/05/21 06:26:34;;;;;;;9.63;1.98;;;14.20;99.90;;;;;;4245181;27;20104;-83
2022/05/21 06:28:34;;;;;;;9.13;1.75;;;14.10;99.90;;;;;;4242182;27;20039;-83
2022/05/21 06:30:37;;;;;;;10.38;2.90;;;14.10;99.90;;;;;;4227001;28;20071;-83
2022/05/21 06:32:38;;;;;;;9.45;2.03;;;14.00;99.90;;;;;;4246985;27;20529;-83
2022/05/21 06:34:39;;;;;;;8.15;1.52;;;14.00;99.90;;;;;;4246782;27;20043;-84
2022/05/21 06:36:40;;;;;;;8.57;2.33;;;14.00;99.90;;;;;;4246189;27;20448;-84
2022/05/21 06:38:42;;;;;;;12.40;1.83;;;14.00;99.90;;;;;;4246029;27;20047;-83
2022/05/21 06:40:43;;;;;;;6.47;1.98;;;14.10;99.90;;;;;;4245348;27;20414;-83
2022/05/21 06:42:43;;;;;;;9.77;2.10;;;14.20;99.90;;;;;;4247313;27;20035;-83
2022/05/21 06:44:44;;;;;;;4.40;1.58;;;14.30;99.90;;;;;;4226296;28;20127;-82
2022/05/21 06:46:45;;;;;;;11.00;2.25;;;14.30;99.90;;;;;;4222049;28;20149;-84
2022/05/21 06:48:46;;;;;;;13.20;1.98;;;14.30;99.90;;;;;;4248683;27;20058;-83
2022/05/21 06:50:47;;;;;;;9.00;2.35;;;14.50;99.90;;;;;;4244695;27;20043;-83
2022/05/21 06:52:47;;;;;;;13.10;1.70;;;14.60;99.90;;;;;;4234854;27;20043;-83
2022/05/21 06:54:48;;;;;;;10.60;1.80;;;14.70;99.90;;;;;;4199067;28;20040;-84
2022/05/21 06:56:49;;;;;;;10.70;1.92;;;14.70;99.90;;;;;;4239622;27;20380;-84
2022/05/21 06:58:51;;;;;;;10.30;2.00;;;14.50;99.90;;;;;;4248734;27;20222;-84
2022/05/21 07:00:52;;;;;;;9.45;1.67;;;14.60;99.90;;;;;;4232984;28;20094;-84
2022/05/21 07:02:53;;;;;;;11.43;2.10;;;14.50;99.90;;;;;;4214648;28;20044;-82
2022/05/21 07:09:35;;;;;;;9.10;1.90;;;14.90;99.90;;;;;;4247448;28;20174;-84
2022/05/21 07:11:37;;;;;;;7.75;1.67;;;15.00;99.90;;;;;;4230790;28;20509;-84
2022/05/21 07:13:37;;;;;;;8.60;2.47;;;15.00;99.90;;;;;;4230747;28;20047;-85
2022/05/21 07:15:38;;;;;;;12.80;1.70;;;15.10;99.90;;;;;;4230728;28;20082;-84
2022/05/21 07:17:40;;;;;;;14.80;2.85;;;15.10;99.90;;;;;;4229900;28;20040;-84
2022/05/21 07:19:41;;;;;;;9.00;1.60;;;15.20;99.90;;;;;;4212581;28;20128;-86
2022/05/21 07:21:41;;;;;;;10.98;2.60;;;15.30;99.90;;;;;;4247803;28;20411;-84
2022/05/21 07:23:43;;;;;;;9.77;1.70;;;15.50;99.90;;;;;;4242822;28;20498;-84
2022/05/21 07:25:44;;;;;;;10.40;2.08;;;15.70;99.90;;;;;;4212415;28;20048;-85
2022/05/21 07:27:45;;;;;;;14.63;2.03;;;15.80;99.90;;;;;;4247742;28;20062;-84
2022/05/21 07:29:46;;;;;;;17.80;2.63;;;15.80;99.90;;;;;;4247556;28;20036;-84
2022/05/21 07:31:47;;;;;;;8.23;1.50;;;15.80;99.90;;;;;;4246675;28;20622;-84
2022/05/21 07:33:48;;;;;;;7.90;1.98;;;15.80;99.90;;;;;;4249650;27;20042;-84
2022/05/21 07:35:49;;;;;;;8.57;1.80;;;15.90;99.90;;;;;;4249172;27;20043;-84
2022/05/21 07:37:51;;;;;;;13.50;2.72;;;15.80;99.90;;;;;;4233978;28;20066;-84
2022/05/21 07:39:52;;;;;;;9.05;1.48;;;15.80;99.90;;;;;;4233417;28;20047;-84
2022/05/21 07:41:53;;;;;;;9.57;2.45;;;15.70;99.90;;;;;;4233776;28;20119;-84
2022/05/21 07:43:55;;;;;;;11.15;1.75;;;15.70;99.90;;;;;;4251444;27;20047;-84
2022/05/21 07:45:58;;;;;;;13.43;1.75;;;15.80;99.90;;;;;;4248157;27;20038;-84
2022/05/21 07:47:59;;;;;;;9.88;1.95;;;15.80;99.90;;;;;;4251592;27;20096;-83
2022/05/21 07:50:00;;;;;;;8.93;1.67;;;16.00;99.90;;;;;;4233612;27;20554;-84
2022/05/21 07:52:00;;;;;;;12.43;2.20;;;16.20;99.90;;;;;;4233133;28;20534;-84
2022/05/21 07:54:01;;;;;;;7.32;1.80;;;16.30;99.90;;;;;;4251827;27;20035;-85
2022/05/21 07:56:03;;;;;;;12.13;1.60;;;16.40;99.90;;;;;;4252546;27;20528;-84
2022/05/21 07:58:04;;;;;;;8.13;1.52;;;16.50;99.90;;;;;;4233854;28;20495;-84
2022/05/21 08:00:07;;;;;;;5.00;1.50;;;16.60;99.90;;;;;;4252128;27;20068;-84
2022/05/21 08:02:15;;;;;;;10.32;1.70;;;16.00;99.90;;;;;;4253906;27;20123;-85
2022/05/21 08:04:18;;;;;;;8.05;1.20;;;16.60;99.90;;;;;;4250448;27;20490;-84
2022/05/21 08:06:19;;;;;;;9.50;1.67;;;16.40;99.90;;;;;;4244778;27;20039;-84
2022/05/21 08:08:20;;;;;;;5.93;1.80;;;16.50;99.90;;;;;;4255209;27;20097;-84
2022/05/21 08:10:22;;;;;;;16.73;2.35;;;16.60;99.90;;;;;;4254655;27;20484;-84
2022/05/21 08:12:23;;;;;;;5.65;2.00;;;16.90;99.90;;;;;;4251925;27;20110;-84
2022/05/21 08:14:24;;;;;;;7.95;1.55;;;16.90;99.90;;;;;;4251451;27;20047;-84
2022/05/21 08:16:25;;;;;;;8.52;2.00;;;16.90;99.90;;;;;;4251190;27;20043;-84
2022/05/21 08:18:27;;;;;;;6.38;1.63;;;17.00;99.90;;;;;;4251303;27;20043;-84
2022/05/21 08:20:28;;;;;;;7.35;1.83;;;17.00;99.90;;;;;;4251311;27;20062;-84
2022/05/21 08:27:09;;;;;;;8.35;2.10;;;16.90;99.90;;;;;;4233575;28;20130;-83
2022/05/21 08:29:11;;;;;;;8.98;1.75;;;17.00;99.90;;;;;;4251102;27;20407;-83
2022/05/21 08:31:12;;;;;;;6.40;2.38;;;16.80;99.90;;;;;;4250919;27;20039;-83
2022/05/21 08:33:14;;;;;;;6.20;1.42;;;16.60;99.90;;;;;;4251214;27;20537;-84
2022/05/21 08:35:15;;;;;;;7.00;1.30;;;16.50;99.90;;;;;;4232985;28;20441;-84
2022/05/21 08:37:16;;;;;;;10.73;1.52;;;16.60;99.90;;;;;;4246334;27;20118;-83
2022/05/21 08:39:18;;;;;;;6.28;1.38;;;16.90;99.90;;;;;;4225016;28;20079;-84
2022/05/21 08:41:25;;;;;;;7.38;2.15;;;17.20;99.90;;;;;;4229919;28;20048;-84
2022/05/21 08:44:04;;;;;;;6.22;1.08;;;17.40;99.90;;;;;;4247368;27;20035;-84
2022/05/21 08:46:08;;;;;;;20.85;2.47;;;17.60;99.90;;;;;;4248117;27;20079;-84
2022/05/21 08:48:10;;;;;;;13.25;2.30;;;17.70;99.90;;;;;;4250794;27;20149;-84
2022/05/21 08:50:15;;;;;;;10.23;1.48;;;17.60;99.90;;;;;;4251267;27;20384;-84
2022/05/21 08:52:37;;;;;;;7.97;1.85;;;17.70;99.90;;;;;;4250692;27;20082;-84
2022/05/21 08:54:43;;;;;;;5.97;2.00;;;17.70;99.70;;;;;;4251360;27;20494;-84
2022/05/21 08:56:44;;;;;;;8.02;2.03;;;18.00;99.70;;;;;;4232919;28;20458;-83
2022/05/21 08:59:11;;;;;;;8.13;1.15;;;18.10;98.90;;;;;;4233049;28;20082;-84
2022/05/21 09:01:16;;;;;;;6.63;1.77;;;18.30;97.40;;;;;;4246730;27;20055;-85
2022/05/21 09:03:21;;;;;;;9.13;1.70;;;18.20;98.80;;;;;;4232505;28;20431;-84
2022/05/21 09:05:23;;;;;;;6.55;1.58;;;18.10;98.90;;;;;;4250868;27;20057;-84
2022/05/21 09:07:38;;;;;;;9.57;1.30;;;18.20;98.70;;;;;;4232972;28;20056;-84
2022/05/21 09:10:04;;;;;;;7.72;1.35;;;18.30;98.20;;;;;;4250728;27;20032;-85
2022/05/21 09:12:16;;;;;;;6.55;1.38;;;18.40;97.80;;;;;;4232538;28;20405;-85
2022/05/21 09:14:27;;;;;;;7.78;1.50;;;18.50;97.60;;;;;;4232431;28;20542;-85
2022/05/21 09:16:57;;;;;;;6.28;1.40;;;18.80;96.90;;;;;;4250153;27;20128;-85
2022/05/21 09:18:57;;;;;;;8.20;1.45;;;18.90;97.10;;;;;;4249834;27;20042;-84
2022/05/21 09:21:13;;;;;;;6.70;1.20;;;18.70;97.30;;;;;;4249538;27;20047;-85
2022/05/21 09:23:14;;;;;;;7.18;1.60;;;18.30;94.70;;;;;;4249502;27;20114;-84
2022/05/21 09:25:23;;;;;;;8.90;1.50;;;18.30;97.40;;;;;;4249742;27;20042;-84
2022/05/21 09:27:34;;;;;;;6.75;1.17;;;18.20;97.50;;;;;;4249856;27;20035;-84
2022/05/21 09:29:37;;;;;;;7.10;1.35;;;18.10;97.20;;;;;;4230963;28;20055;-84
2022/05/21 09:31:38;;;;;;;5.28;1.20;;;18.10;97.50;;;;;;4245615;27;20165;-83
2022/05/21 09:33:42;;;;;;;12.02;1.98;;;18.10;97.60;;;;;;4245350;27;20156;-83
2022/05/21 09:35:57;;;;;;;4.88;0.93;;;18.30;97.40;;;;;;4249535;27;20043;-84
2022/05/21 09:38:21;;;;;;;8.75;1.33;;;18.30;96.00;;;;;;4249865;27;20047;-85
2022/05/21 09:40:35;;;;;;;3.90;1.15;;;18.60;96.20;;;;;;4248978;27;20048;-84
2022/05/21 09:47:21;;;;;;;7.78;1.50;;;19.20;95.20;;;;;;4236610;28;20039;-85
2022/05/21 09:49:29;;;;;;;7.60;1.20;;;19.40;95.20;;;;;;4235812;27;20039;-84
2022/05/21 09:51:32;;;;;;;6.93;0.80;;;19.30;94.40;;;;;;4234150;28;20044;-85
2022/05/21 09:53:39;;;;;;;7.32;1.73;;;19.20;94.70;;;;;;4235232;28;20074;-85
2022/05/21 09:55:39;;;;;;;4.20;1.08;;;19.20;94.30;;;;;;4234389;28;20035;-85
2022/05/21 09:57:44;;;;;;;4.57;1.02;;;19.20;94.40;;;;;;4232204;28;20054;-84
2022/05/21 10:00:19;;;;;;;3.72;1.15;;;19.10;94.30;;;;;;4231952;28;20122;-84
2022/05/21 10:02:19;;;;;;;5.90;1.80;;;19.40;93.50;;;;;;4214484;28;20055;-85
2022/05/21 10:04:52;;;;;;;9.15;1.10;;;19.70;93.80;;;;;;4215224;28;20032;-85
2022/05/21 10:12:24;;;;;;;11.98;1.50;;;19.80;92.60;;;;;;4206885;28;20059;-85
2022/05/21 10:14:33;;;;;;;3.65;1.10;;;19.60;92.30;;;;;;4214856;28;20051;-85
2022/05/21 10:16:45;;;;;;;6.82;1.27;;;19.40;92.40;;;;;;4214530;28;20048;-85
2022/05/21 10:18:49;;;;;;;8.02;1.13;;;19.40;92.50;;;;;;4214835;28;20051;-85
2022/05/21 10:20:56;;;;;;;6.93;1.15;;;19.10;92.60;;;;;;4214736;28;20146;-84
2022/05/21 10:23:04;;;;;;;6.65;1.48;;;19.00;92.70;;;;;;4244359;27;20069;-84
2022/05/21 10:25:07;;;;;;;10.63;1.27;;;18.80;92.70;;;;;;4248529;27;20035;-85
2022/05/21 10:27:24;;;;;;;3.33;1.02;;;18.60;93.30;;;;;;4248271;27;20058;-85
2022/05/21 10:29:40;;;;;;;7.78;1.30;;;19.00;92.50;;;;;;4268907;27;20054;-84
2022/05/21 10:32:12;;;;;;;5.45;0.85;;;19.20;92.90;;;;;;4231587;28;20056;-84
2022/05/21 10:34:34;;;;;;;8.02;1.10;;;19.20;92.00;;;;;;4230952;28;20051;-84
2022/05/21 10:36:57;;;;;;;3.20;1.02;;;19.10;92.10;;;;;;4267049;27;20058;-85
2022/05/21 10:39:29;;;;;;;4.38;0.85;;;18.80;91.60;;;;;;4248209;27;20059;-84
2022/05/21 10:41:43;;;;;;;5.10;1.42;;;18.80;91.40;;;;;;4247949;27;20069;-84
2022/05/21 10:44:15;;;;;;;7.07;1.70;;;19.00;92.10;;;;;;4230503;28;20082;-85
2022/05/21 10:46:25;;;;;;;6.45;1.00;;;19.10;90.90;;;;;;4226528;28;20059;-84
2022/05/21 10:48:43;;;;;;;3.50;1.00;;;18.90;90.90;;;;;;4247525;27;20491;-85
2022/05/21 10:51:09;;;;;;;5.45;1.20;;;19.00;91.90;;;;;;4247887;27;20051;-85
2022/05/21 10:53:34;;;;;;;7.38;2.13;;;18.90;91.10;;;;;;4231033;28;20055;-85
2022/05/21 10:56:21;;;;;;;8.75;1.20;;;18.80;91.80;;;;;;4266256;27;20125;-85
2022/05/21 10:58:36;;;;;;;7.13;0.98;;;18.60;91.70;;;;;;4231351;27;20047;-85
2022/05/21 11:01:01;;;;;;;5.70;1.42;;;19.00;91.90;;;;;;4251795;27;20047;-85
2022/05/21 11:03:38;;;;;;;3.47;0.90;;;19.30;91.70;;;;;;4231196;28;20043;-85
2022/05/21 11:05:56;;;;;;;8.93;1.50;;;19.20;90.50;;;;;;4230688;28;20086;-85
2022/05/21 11:08:09;;;;;;;4.20;1.40;;;19.30;91.00;;;;;;4229982;28;20058;-85
2022/05/21 11:10:45;;;;;;;4.28;1.40;;;19.30;91.20;;;;;;4247536;27;20046;-84
2022/05/21 11:12:58;;;;;;;14.82;2.15;;;19.00;89.60;;;;;;4162651;28;20969;-85
2022/05/21 11:15:11;;;;;;;8.23;2.03;;;18.80;91.00;;;;;;4217837;28;20082;-85